Time;durP1;ratioP1;P1;durP2;ratioP2;P2;SDS_P1;SDS_P2;PMS_P1;PMS_P2;Temp;Humidity;BMP_temperature;BMP_pressure;BME280_temperature;BME280_humidity;BME280_pressure;Samples;Min_cycle;Max_cycle;Signal;HPM_P1;HPM_P2
2021/09/14 00:01:32;;;;;;;3.88;2.60;;;18.90;99.90;;;18.54;97.01;100435.25;4175675;28;20108;-77
2021/09/14 00:03:33;;;;;;;3.25;2.85;;;18.80;99.90;;;18.50;97.08;100435.88;4177097;28;20040;-76
2021/09/14 00:05:34;;;;;;;2.92;2.63;;;18.80;99.90;;;18.54;97.28;100451.28;4176955;28;20056;-77
2021/09/14 00:07:35;;;;;;;6.13;2.72;;;18.80;99.90;;;18.56;97.27;100445.72;4175789;28;20101;-77
2021/09/14 00:09:36;;;;;;;3.08;2.75;;;18.80;99.90;;;18.52;97.34;100445.31;4167299;28;20025;-77
2021/09/14 00:11:39;;;;;;;3.50;2.97;;;18.80;99.90;;;18.55;97.18;100444.88;4177541;28;20103;-77
2021/09/14 00:13:40;;;;;;;2.92;2.63;;;18.80;99.90;;;18.53;97.29;100452.31;4176858;28;20706;-77
2021/09/14 00:15:41;;;;;;;6.38;3.13;;;18.80;99.90;;;18.50;97.21;100442.06;4174194;28;20026;-76
2021/09/14 00:17:42;;;;;;;3.47;2.85;;;18.80;99.90;;;18.59;96.94;100442.59;4176594;28;20040;-77
2021/09/14 00:19:43;;;;;;;5.25;3.47;;;18.80;99.90;;;18.70;95.54;100448.09;4176543;28;20053;-76
2021/09/14 00:21:44;;;;;;;5.20;2.80;;;18.90;99.90;;;18.62;95.65;100435.00;4175479;28;20025;-77
2021/09/14 00:23:45;;;;;;;3.25;2.65;;;18.90;99.90;;;18.75;95.21;100448.28;4176681;28;20028;-77
2021/09/14 00:25:46;;;;;;;4.15;2.75;;;19.00;99.90;;;18.74;95.06;100440.47;4176648;28;20041;-77
2021/09/14 00:27:47;;;;;;;3.05;2.75;;;19.10;99.90;;;18.98;93.50;100439.66;4167188;28;20445;-77
2021/09/14 00:29:48;;;;;;;4.40;2.95;;;19.10;99.90;;;18.92;93.79;100435.19;4180524;28;20028;-77
2021/09/14 00:31:52;;;;;;;4.18;2.88;;;19.20;99.90;;;18.89;94.57;100445.47;4177710;28;20036;-77
2021/09/14 00:33:53;;;;;;;;;;;19.20;99.90;;;18.82;95.19;100439.41;4176960;28;20075;-77
2021/09/14 00:35:54;;;;;;;2.95;2.60;;;19.20;99.90;;;18.84;94.86;100454.16;4176461;28;19908;-78
2021/09/14 00:37:55;;;;;;;4.70;2.90;;;19.20;99.90;;;18.88;94.94;100449.19;4176545;28;20028;-75
2021/09/14 00:39:56;;;;;;;4.05;2.75;;;19.20;99.90;;;19.01;94.16;100457.13;4176625;28;20048;-76
2021/09/14 00:41:57;;;;;;;5.63;3.38;;;19.20;99.90;;;19.11;93.69;100460.13;4178835;28;20085;-76
2021/09/14 00:44:02;;;;;;;3.53;2.45;;;19.30;99.90;;;19.03;94.06;100455.84;4167841;28;20017;-76
2021/09/14 00:46:04;;;;;;;4.93;3.20;;;19.30;99.90;;;19.10;94.30;100463.84;4173882;28;20056;-77
2021/09/14 00:48:05;;;;;;;3.50;2.90;;;19.30;99.90;;;19.25;93.30;100453.63;4176040;28;20028;-75
2021/09/14 00:50:07;;;;;;;4.10;2.83;;;19.40;99.90;;;19.31;92.97;100458.91;4176047;28;20025;-76
2021/09/14 00:52:09;;;;;;;4.22;3.03;;;19.50;99.90;;;19.31;93.33;100463.44;4174172;28;20084;-75
2021/09/14 00:54:19;;;;;;;6.00;3.20;;;19.50;99.90;;;19.49;92.92;100474.22;4175246;28;20029;-76
2021/09/14 00:56:20;;;;;;;5.88;3.17;;;19.60;99.90;;;19.54;92.89;100479.72;4176273;28;20069;-76
2021/09/14 00:58:21;;;;;;;4.60;3.72;;;19.70;99.90;;;19.50;93.28;100483.91;4175045;28;20033;-76
2021/09/14 01:00:22;;;;;;;5.03;3.40;;;19.70;99.90;;;19.53;94.05;100496.84;4176375;28;20028;-78
2021/09/14 01:02:23;;;;;;;5.82;3.33;;;19.80;99.90;;;19.64;94.76;100497.94;4174926;28;20063;-77
2021/09/14 01:04:24;;;;;;;5.65;3.17;;;19.80;99.90;;;19.49;95.29;100500.97;4175068;28;20020;-76
2021/09/14 01:06:25;;;;;;;4.75;3.95;;;19.80;99.90;;;19.48;96.27;100506.53;4175040;28;20463;-76
2021/09/14 01:08:27;;;;;;;5.13;3.38;;;19.80;99.90;;;19.47;96.53;100507.59;4174993;28;20055;-76
2021/09/14 01:10:29;;;;;;;4.90;4.13;;;19.80;99.90;;;19.51;96.67;100514.13;4176185;28;20025;-76
2021/09/14 01:12:30;;;;;;;4.65;3.30;;;19.80;99.90;;;19.43;97.29;100507.19;4175042;28;20099;-76
2021/09/14 01:14:31;;;;;;;4.00;3.60;;;19.80;99.90;;;19.45;97.85;100505.13;4174572;28;20036;-75
2021/09/14 01:16:35;;;;;;;6.80;3.83;;;19.70;99.90;;;19.50;98.50;100507.16;4175005;28;20519;-76
2021/09/14 01:18:36;;;;;;;7.03;4.35;;;19.80;99.90;;;19.48;99.22;100519.91;4174884;28;20033;-76
2021/09/14 01:20:37;;;;;;;9.57;4.70;;;19.80;99.90;;;19.43;100.00;100517.91;4173971;28;20024;-75
2021/09/14 01:22:38;;;;;;;5.35;4.30;;;19.80;99.90;;;19.43;100.00;100512.56;4175640;28;20048;-77
2021/09/14 01:24:39;;;;;;;5.15;4.22;;;19.80;99.90;;;19.37;100.00;100521.41;4177722;28;20026;-76
2021/09/14 01:26:40;;;;;;;5.55;4.10;;;19.70;99.90;;;19.35;100.00;100512.81;4174882;28;20028;-77
2021/09/14 01:28:41;;;;;;;7.78;4.28;;;19.80;99.90;;;19.45;100.00;100523.84;4176227;28;20020;-76
2021/09/14 01:30:42;;;;;;;8.88;4.55;;;19.70;99.90;;;19.45;100.00;100523.00;4182811;28;20025;-76
2021/09/14 01:32:50;;;;;;;5.63;4.57;;;19.70;99.90;;;19.49;100.00;100524.22;4166572;28;20091;-76
2021/09/14 01:34:51;;;;;;;6.65;5.20;;;19.70;99.90;;;19.56;100.00;100520.44;4166876;28;20029;-76
2021/09/14 01:36:51;;;;;;;13.23;5.38;;;19.80;99.90;;;19.49;100.00;100514.34;4166652;28;20045;-76
2021/09/14 01:38:52;;;;;;;9.32;5.13;;;19.80;99.90;;;19.46;100.00;100516.63;4167855;28;20036;-77
2021/09/14 01:40:54;;;;;;;12.07;6.38;;;19.80;99.90;;;19.50;100.00;100516.00;4169638;28;20029;-76
2021/09/14 01:42:55;;;;;;;9.52;5.25;;;19.80;99.90;;;19.60;100.00;100513.63;4183354;28;20103;-76
2021/09/14 01:44:56;;;;;;;9.15;5.78;;;19.80;99.90;;;19.56;100.00;100499.03;4173811;28;20018;-76
2021/09/14 01:46:57;;;;;;;9.07;6.47;;;19.90;99.90;;;19.52;100.00;100505.88;4166357;28;20414;-76
2021/09/14 01:48:58;;;;;;;8.38;5.35;;;19.90;99.90;;;19.47;100.00;100503.06;4178505;28;20033;-76
2021/09/14 01:50:59;;;;;;;13.75;5.97;;;19.80;99.90;;;19.46;100.00;100490.72;4177172;28;20536;-76
2021/09/14 01:53:01;;;;;;;11.20;6.28;;;19.80;99.90;;;19.35;100.00;100488.72;4166747;28;20032;-76
2021/09/14 01:55:05;;;;;;;7.82;5.72;;;19.80;99.90;;;19.31;100.00;100479.50;4179798;28;20029;-76
2021/09/14 01:57:06;;;;;;;;;;;19.70;99.90;;;19.25;100.00;100472.34;4167201;28;20030;-76
2021/09/14 01:59:07;;;;;;;9.15;5.55;;;19.70;99.90;;;19.25;100.00;100469.66;4166759;28;19920;-76
2021/09/14 02:01:34;;;;;;;7.53;5.63;;;19.70;99.90;;;19.25;100.00;100472.34;4176304;28;20025;-76
2021/09/14 02:03:40;;;;;;;9.57;5.50;;;19.70;99.90;;;19.23;100.00;100458.38;4169604;28;20125;-76
2021/09/14 02:08:05;;;;;;;10.60;5.72;;;19.60;99.90;;;19.19;100.00;100457.16;4170061;28;20075;-76
2021/09/14 02:45:02;;;;;;;6.38;4.80;;;19.20;99.90;;;18.79;100.00;100416.56;4180090;28;20028;-76
2021/09/14 02:58:46;;;;;;;8.60;5.38;;;19.10;99.90;;;18.72;100.00;100407.78;4171545;28;20087;-76
2021/09/14 03:00:46;;;;;;;8.13;4.82;;;19.10;99.90;;;18.69;100.00;100408.22;4183642;28;20103;-76
2021/09/14 03:02:49;;;;;;;5.95;4.82;;;19.10;99.90;;;18.64;100.00;100408.88;4191394;28;20017;-76
2021/09/14 03:04:50;;;;;;;5.68;5.07;;;19.10;99.90;;;18.66;100.00;100403.31;4172548;28;20043;-76
2021/09/14 03:06:51;;;;;;;8.90;5.38;;;19.10;99.90;;;18.70;100.00;100404.50;4169050;28;20061;-76
2021/09/14 03:08:52;;;;;;;10.48;6.07;;;19.10;99.90;;;18.70;100.00;100401.84;4168968;28;20026;-76
2021/09/14 03:10:53;;;;;;;6.78;5.03;;;19.00;99.90;;;18.68;100.00;100409.25;4168897;28;20057;-76
2021/09/14 03:12:53;;;;;;;6.57;5.53;;;19.00;99.90;;;18.65;100.00;100407.00;4168730;28;20030;-76
2021/09/14 03:14:54;;;;;;;7.82;5.20;;;19.10;99.90;;;18.60;100.00;100409.53;4167888;28;20032;-76
2021/09/14 03:16:55;;;;;;;6.32;4.60;;;19.00;99.90;;;18.61;100.00;100417.31;4168528;28;20432;-75
2021/09/14 03:18:56;;;;;;;7.97;5.05;;;19.00;99.90;;;18.64;100.00;100422.22;4168669;28;20064;-76
2021/09/14 03:20:57;;;;;;;7.75;6.60;;;19.00;99.90;;;18.64;100.00;100424.06;4169793;28;20045;-76
2021/09/14 03:22:58;;;;;;;8.57;6.32;;;19.00;99.90;;;18.65;100.00;100415.84;4172680;28;20534;-76
2021/09/14 03:24:59;;;;;;;7.45;6.50;;;19.00;99.90;;;18.73;100.00;100420.94;4179616;28;20025;-76
2021/09/14 03:27:00;;;;;;;9.35;5.20;;;19.00;99.90;;;18.67;100.00;100421.78;4169779;28;20038;-76
2021/09/14 03:29:01;;;;;;;6.22;5.43;;;19.00;99.90;;;18.66;100.00;100417.50;4169772;28;20116;-76
2021/09/14 03:31:03;;;;;;;8.30;6.45;;;19.00;99.90;;;18.62;100.00;100416.28;4168656;28;20065;-76
2021/09/14 03:33:04;;;;;;;6.97;5.82;;;19.00;99.90;;;18.63;100.00;100415.25;4168562;28;20025;-76
2021/09/14 03:35:07;;;;;;;7.25;5.07;;;19.10;99.90;;;18.68;100.00;100417.28;4168436;28;20029;-76
2021/09/14 03:37:08;;;;;;;9.35;6.40;;;19.00;99.90;;;18.65;100.00;100413.19;4168204;28;20036;-76
2021/09/14 03:39:09;;;;;;;6.70;6.00;;;19.00;99.90;;;18.64;100.00;100410.72;4168435;28;20525;-76
2021/09/14 03:41:10;;;;;;;6.97;5.63;;;19.00;99.90;;;18.66;100.00;100422.84;4173278;28;20048;-76
2021/09/14 03:43:13;;;;;;;5.90;5.03;;;19.00;99.90;;;18.63;100.00;100409.09;4184906;28;20444;-76
2021/09/14 03:45:14;;;;;;;5.10;4.57;;;19.00;99.90;;;18.62;100.00;100416.28;4167403;28;20069;-76
2021/09/14 03:47:15;;;;;;;8.80;6.10;;;19.00;99.90;;;18.63;100.00;100414.44;4183466;28;20052;-76
2021/09/14 03:49:16;;;;;;;6.72;5.57;;;19.00;99.90;;;18.63;100.00;100404.56;4182716;28;20432;-76
2021/09/14 03:51:17;;;;;;;7.22;5.80;;;19.00;99.90;;;18.65;100.00;100409.69;4176073;28;20039;-76
2021/09/14 03:53:18;;;;;;;7.60;6.03;;;19.00;99.90;;;18.62;100.00;100407.44;4169332;28;20544;-76
2021/09/14 03:55:18;;;;;;;5.47;4.97;;;19.00;99.90;;;18.62;100.00;100410.94;4166632;28;20029;-76
2021/09/14 03:57:19;;;;;;;6.30;5.05;;;19.00;99.90;;;18.60;100.00;100404.19;4184574;28;20075;-76
2021/09/14 03:59:21;;;;;;;6.28;5.53;;;19.00;99.90;;;18.66;100.00;100411.34;4162015;28;20434;-76
2021/09/14 04:01:22;;;;;;;9.10;5.90;;;19.00;99.90;;;18.63;100.00;100409.91;4168956;28;20068;-76
2021/09/14 04:03:40;;;;;;;6.25;5.65;;;19.00;99.90;;;18.55;100.00;100401.31;4169068;28;20032;-76
2021/09/14 04:10:10;;;;;;;5.95;5.10;;;18.90;99.90;;;18.57;100.00;100417.97;4168166;28;20103;-76
2021/09/14 04:12:10;;;;;;;7.28;5.38;;;18.90;99.90;;;18.58;100.00;100417.75;4159436;28;20430;-76
2021/09/14 04:14:11;;;;;;;6.68;5.45;;;18.90;99.90;;;18.55;100.00;100414.69;4180337;28;20072;-76
2021/09/14 04:16:12;;;;;;;7.43;4.70;;;18.90;99.90;;;18.51;100.00;100421.50;4170542;28;20043;-76
2021/09/14 04:18:13;;;;;;;12.05;7.10;;;18.90;99.90;;;18.84;100.00;100434.63;4169039;28;20083;-76
2021/09/14 04:20:14;;;;;;;8.60;6.28;;;19.00;99.90;;;18.78;100.00;100436.31;4167839;28;20026;-76
2021/09/14 04:22:15;;;;;;;9.80;6.60;;;19.00;99.90;;;18.69;100.00;100440.28;4169012;28;20029;-76
2021/09/14 04:24:16;;;;;;;8.40;6.05;;;19.10;99.90;;;18.66;100.00;100438.88;4180865;28;20021;-76
2021/09/14 04:26:17;;;;;;;8.00;5.82;;;19.10;99.90;;;18.70;100.00;100442.72;4173685;28;20021;-76
2021/09/14 04:28:18;;;;;;;14.13;7.13;;;19.10;99.90;;;18.74;100.00;100446.63;4177177;28;20032;-76
2021/09/14 04:30:19;;;;;;;10.32;7.68;;;19.10;99.90;;;18.67;100.00;100439.66;4167640;28;20155;-76
2021/09/14 04:32:20;;;;;;;8.85;5.70;;;19.10;99.90;;;18.71;100.00;100443.56;4167160;28;20053;-76
2021/09/14 04:34:21;;;;;;;6.55;5.75;;;19.10;99.90;;;18.74;100.00;100446.63;4168842;28;20029;-76
2021/09/14 04:36:22;;;;;;;11.32;6.63;;;19.10;99.90;;;18.77;100.00;100453.38;4167585;28;20025;-76
2021/09/14 04:38:23;;;;;;;11.98;6.93;;;19.10;99.90;;;18.79;100.00;100456.66;4167316;28;20036;-76
2021/09/14 04:40:24;;;;;;;11.15;6.38;;;19.10;99.90;;;18.89;100.00;100461.53;4167348;28;20503;-76
2021/09/14 04:42:25;;;;;;;12.25;6.53;;;19.10;99.90;;;18.92;100.00;100453.06;4183908;28;20082;-76
2021/09/14 04:44:26;;;;;;;12.43;6.93;;;19.20;99.90;;;18.84;100.00;100453.34;4185049;28;20053;-76
2021/09/14 04:46:27;;;;;;;12.77;7.25;;;19.20;99.90;;;18.88;100.00;100455.34;4174531;28;20428;-77
2021/09/14 04:48:28;;;;;;;14.85;7.35;;;19.20;99.90;;;18.92;100.00;100466.44;4176216;28;20029;-77
2021/09/14 04:50:29;;;;;;;16.40;6.90;;;19.20;99.90;;;18.91;100.00;100452.25;4181583;28;20506;-76
2021/09/14 04:52:30;;;;;;;15.25;7.60;;;19.20;99.90;;;18.90;100.00;100455.97;4167328;28;20044;-77
2021/09/14 04:54:31;;;;;;;9.85;6.10;;;19.20;99.90;;;18.88;100.00;100460.69;4168529;28;20049;-76
2021/09/14 04:56:32;;;;;;;10.52;6.75;;;19.20;99.90;;;18.90;100.00;100457.81;4167286;28;20026;-76
2021/09/14 04:58:36;;;;;;;14.32;7.00;;;19.20;99.90;;;18.88;100.00;100462.53;4167101;28;20109;-76
2021/09/14 05:00:36;;;;;;;12.93;6.93;;;19.30;99.90;;;18.85;100.00;100449.63;4167205;28;20022;-76
2021/09/14 05:02:38;;;;;;;12.73;7.07;;;19.30;99.90;;;18.90;100.00;100463.16;4167263;28;20064;-77
2021/09/14 05:04:38;;;;;;;16.25;7.53;;;19.30;99.90;;;18.87;100.00;100444.91;4167157;28;20465;-76
2021/09/14 05:06:39;;;;;;;11.10;6.88;;;19.30;99.90;;;18.91;100.00;100457.59;4168248;28;20072;-76
2021/09/14 05:08:40;;;;;;;18.13;7.80;;;19.30;99.90;;;18.92;100.00;100456.56;4167211;28;20068;-77
2021/09/14 05:10:41;;;;;;;14.70;6.85;;;19.30;99.90;;;18.90;100.00;100466.66;4167214;28;20527;-76
2021/09/14 05:12:42;;;;;;;13.88;7.78;;;19.30;99.90;;;18.90;100.00;100460.50;4168329;28;20029;-76
2021/09/14 05:14:43;;;;;;;12.98;7.18;;;19.30;99.90;;;18.85;100.00;100461.13;4168108;28;20036;-76
2021/09/14 05:16:44;;;;;;;8.10;6.18;;;19.30;99.90;;;18.85;100.00;100462.97;4168145;28;20036;-76
2021/09/14 05:18:48;;;;;;;11.70;6.90;;;19.20;99.90;;;18.89;100.00;100477.56;4168207;28;20052;-76
2021/09/14 05:20:51;;;;;;;13.77;6.20;;;19.20;99.90;;;18.84;100.00;100477.41;4167141;28;20025;-76
2021/09/14 05:23:00;;;;;;;7.40;5.18;;;19.30;99.90;;;18.80;100.00;100482.34;4171196;28;20025;-76
2021/09/14 05:25:03;;;;;;;10.10;6.10;;;19.20;99.90;;;18.77;100.00;100480.94;4176220;28;20025;-76
2021/09/14 05:27:04;;;;;;;10.70;7.03;;;19.20;99.90;;;18.78;100.00;100476.41;4167088;28;20033;-76
2021/09/14 05:29:05;;;;;;;12.90;6.55;;;19.20;99.90;;;18.81;100.00;100481.31;4166878;28;20076;-77
2021/09/14 05:31:08;;;;;;;7.28;5.88;;;19.20;99.90;;;18.79;100.00;100478.03;4166869;28;20485;-77
2021/09/14 05:33:09;;;;;;;11.15;6.38;;;19.20;99.90;;;18.76;100.00;100489.16;4169803;28;20038;-77
2021/09/14 05:35:11;;;;;;;8.40;5.75;;;19.20;99.90;;;18.72;100.00;100477.28;4166595;28;20443;-77
2021/09/14 05:37:12;;;;;;;12.13;6.45;;;19.10;99.90;;;18.71;100.00;100480.97;4167882;28;20029;-76
2021/09/14 05:39:13;;;;;;;12.48;6.28;;;19.10;99.90;;;18.65;100.00;100474.63;4168563;28;20109;-76
2021/09/14 05:41:14;;;;;;;8.27;5.70;;;19.10;99.90;;;18.64;100.00;100486.34;4175773;28;20443;-76
2021/09/14 05:43:16;;;;;;;6.85;5.68;;;19.10;99.90;;;18.64;100.00;100486.34;4186546;28;20035;-76
2021/09/14 05:45:17;;;;;;;12.38;6.20;;;19.10;99.90;;;18.61;100.00;100484.09;4186367;28;20404;-76
2021/09/14 05:47:18;;;;;;;8.95;4.85;;;19.00;99.90;;;18.61;100.00;100494.78;4184861;28;20025;-76
2021/09/14 05:49:19;;;;;;;9.35;5.75;;;19.00;99.90;;;18.64;100.00;100490.88;4184379;28;20044;-78
2021/09/14 05:51:20;;;;;;;7.22;5.85;;;19.00;99.90;;;18.60;100.00;100490.50;4187668;28;20044;-75
2021/09/14 05:53:21;;;;;;;7.20;4.93;;;19.00;99.90;;;18.61;100.00;100494.78;4175107;28;20442;-75
2021/09/14 05:55:22;;;;;;;5.70;5.07;;;19.00;99.90;;;18.61;100.00;100502.81;4170946;28;20041;-75
2021/09/14 05:57:23;;;;;;;7.82;5.28;;;19.00;99.90;;;18.58;100.00;100505.06;4171057;28;20116;-75
2021/09/14 05:59:24;;;;;;;11.60;6.70;;;19.00;99.90;;;18.61;100.00;100508.16;4170906;28;20030;-75
2021/09/14 06:01:25;;;;;;;7.15;5.32;;;19.00;99.90;;;18.60;100.00;100495.84;4169500;28;20120;-75
2021/09/14 06:03:33;;;;;;;9.55;6.10;;;19.00;99.90;;;18.67;100.00;100517.16;4169641;28;20030;-75
2021/09/14 06:05:34;;;;;;;11.18;6.22;;;19.00;99.90;;;18.65;100.00;100504.03;4169803;28;20029;-76
2021/09/14 06:07:34;;;;;;;8.15;5.82;;;19.00;99.90;;;18.63;100.00;100495.41;4170871;28;20044;-76
2021/09/14 06:09:35;;;;;;;11.80;5.63;;;19.00;99.90;;;18.60;100.00;100505.72;4170885;28;20033;-76
2021/09/14 06:11:36;;;;;;;9.88;5.95;;;19.00;99.90;;;18.62;100.00;100507.13;4174341;28;20025;-76
2021/09/14 06:13:37;;;;;;;13.48;6.05;;;19.00;99.90;;;18.62;100.00;100499.13;4186161;28;20064;-76
2021/09/14 06:15:38;;;;;;;11.68;6.47;;;19.10;99.90;;;18.73;100.00;100511.78;4177478;28;20025;-76
2021/09/14 06:17:42;;;;;;;9.75;6.05;;;19.10;99.90;;;18.70;100.00;100520.22;4182771;28;20060;-76
2021/09/14 06:19:44;;;;;;;10.82;6.90;;;19.10;99.90;;;18.64;100.00;100522.94;4173168;28;20029;-76
2021/09/14 06:21:44;;;;;;;11.40;5.68;;;19.10;99.90;;;18.64;100.00;100523.75;4168864;28;20026;-76
2021/09/14 06:23:45;;;;;;;9.52;5.82;;;19.10;99.90;;;18.62;100.00;100531.16;4153132;28;20125;-76
2021/09/14 06:25:46;;;;;;;9.35;5.63;;;19.10;99.90;;;18.68;100.00;100529.50;4170605;28;20052;-76
2021/09/14 06:27:47;;;;;;;9.20;5.93;;;19.10;99.90;;;18.65;100.00;100525.41;4170773;28;20454;-76
2021/09/14 06:29:48;;;;;;;6.53;5.50;;;19.10;99.90;;;18.64;100.00;100518.41;4169439;28;20057;-76
2021/09/14 06:31:49;;;;;;;8.48;5.72;;;19.10;99.90;;;18.70;100.00;100530.91;4178266;28;20112;-76
2021/09/14 06:33:50;;;;;;;7.57;5.10;;;19.20;99.90;;;18.69;100.00;100534.66;4177242;28;20523;-76
2021/09/14 06:35:51;;;;;;;8.63;5.50;;;19.10;99.90;;;18.73;100.00;100535.00;4177131;28;20021;-76
2021/09/14 06:37:52;;;;;;;7.05;5.18;;;19.20;99.90;;;18.79;100.00;100540.31;4163415;28;20112;-76
2021/09/14 06:39:53;;;;;;;6.50;4.97;;;19.20;99.90;;;18.75;100.00;100533.78;4177000;28;20025;-76
2021/09/14 06:41:55;;;;;;;6.28;4.45;;;19.20;99.90;;;18.83;100.00;100542.56;4180095;28;20029;-76
2021/09/14 06:43:56;;;;;;;8.50;5.00;;;19.30;99.90;;;18.84;100.00;100541.53;4174046;28;20033;-76
2021/09/14 06:45:57;;;;;;;6.50;4.50;;;19.30;99.90;;;18.87;100.00;100544.63;4172977;28;20048;-76
2021/09/14 06:47:58;;;;;;;9.13;5.07;;;19.30;99.90;;;18.89;100.00;100539.03;4184440;28;20021;-76
2021/09/14 06:49:58;;;;;;;7.43;4.50;;;19.40;99.90;;;18.94;100.00;100544.53;4171642;28;20493;-77
2021/09/14 06:51:59;;;;;;;7.72;5.32;;;19.40;99.90;;;18.95;100.00;100540.84;4170033;28;20029;-78
2021/09/14 06:54:01;;;;;;;8.90;5.78;;;19.40;99.90;;;18.97;100.00;100539.59;4169062;28;20053;-78
2021/09/14 06:56:03;;;;;;;8.88;6.03;;;19.50;99.90;;;18.98;100.00;100546.59;4184011;28;20072;-77
2021/09/14 06:58:03;;;;;;;10.68;6.10;;;19.50;99.90;;;19.00;100.00;100547.19;4190931;28;20068;-81
2021/09/14 07:00:05;;;;;;;8.25;5.43;;;19.50;99.90;;;19.03;100.00;100548.59;4171561;28;20083;-79
2021/09/14 07:02:06;;;;;;;8.40;5.90;;;19.50;99.90;;;19.05;100.00;100546.56;4186166;28;20037;-79
2021/09/14 07:04:07;;;;;;;8.57;4.95;;;19.60;99.90;;;19.11;100.00;100549.19;4160991;28;20058;-80
2021/09/14 07:06:08;;;;;;;12.52;5.95;;;19.60;99.90;;;19.22;100.00;100553.00;4179980;28;20078;-79
2021/09/14 07:08:09;;;;;;;12.52;6.93;;;19.70;99.90;;;19.22;100.00;100545.00;4171876;28;20029;-83
2021/09/14 07:10:11;;;;;;;8.57;5.57;;;19.70;99.90;;;19.23;100.00;100550.09;4170017;28;20551;-83
2021/09/14 07:12:12;;;;;;;18.92;6.50;;;19.80;99.90;;;19.32;100.00;100545.34;4170014;28;20477;-82
2021/09/14 07:14:13;;;;;;;9.30;5.20;;;19.90;99.90;;;19.42;100.00;100551.03;4168721;28;20036;-82
2021/09/14 07:16:14;;;;;;;12.27;5.78;;;20.00;99.90;;;19.48;100.00;100544.81;4169427;28;20029;-81
2021/09/14 07:18:15;;;;;;;8.70;5.53;;;20.00;99.90;;;19.55;100.00;100547.44;4168691;28;20082;-79
2021/09/14 07:20:16;;;;;;;12.07;6.25;;;20.20;99.90;;;19.75;100.00;100553.41;4168688;28;20025;-80
2021/09/14 07:22:17;;;;;;;12.57;5.93;;;20.30;99.90;;;19.89;100.00;100550.38;4169805;28;20485;-80
2021/09/14 07:24:18;;;;;;;15.55;6.90;;;20.40;99.90;;;19.93;100.00;100552.63;4183413;28;20056;-79
2021/09/14 07:26:19;;;;;;;13.43;6.97;;;20.50;99.90;;;19.96;100.00;100554.84;4176215;28;20032;-78
2021/09/14 07:28:20;;;;;;;10.70;5.40;;;20.60;99.90;;;20.05;100.00;100556.22;4186251;28;20021;-79
2021/09/14 07:30:21;;;;;;;9.50;5.75;;;20.60;99.90;;;20.08;100.00;100561.94;4197144;28;20029;-80
2021/09/14 07:32:21;;;;;;;12.90;6.07;;;20.80;99.90;;;20.23;100.00;100566.94;4185702;28;20061;-76
2021/09/14 07:34:22;;;;;;;9.52;5.72;;;20.80;99.90;;;20.23;100.00;100559.72;4184570;28;20032;-77
2021/09/14 07:36:23;;;;;;;8.20;5.22;;;20.90;99.90;;;20.29;100.00;100560.72;4176928;28;20025;-76
2021/09/14 07:38:24;;;;;;;10.23;5.78;;;20.90;99.90;;;20.36;100.00;100561.47;4175253;28;20404;-76
2021/09/14 07:40:25;;;;;;;10.82;5.18;;;21.00;99.90;;;20.37;100.00;100565.75;4165523;28;20060;-76
2021/09/14 07:42:26;;;;;;;12.10;6.22;;;21.00;99.90;;;20.31;100.00;100561.31;4185789;28;20032;-76
2021/09/14 07:44:27;;;;;;;9.50;5.07;;;21.00;99.90;;;20.32;100.00;100561.09;4181192;28;20136;-77
2021/09/14 07:46:28;;;;;;;9.05;5.38;;;21.10;99.90;;;20.37;100.00;100555.88;4151280;28;20406;-76
2021/09/14 07:48:29;;;;;;;7.63;5.07;;;21.10;99.90;;;20.42;100.00;100566.75;4179610;28;20063;-77
2021/09/14 07:50:30;;;;;;;10.80;5.25;;;21.10;99.90;;;20.43;100.00;100556.81;4179791;28;20029;-83
2021/09/14 07:52:31;;;;;;;11.90;5.35;;;21.20;99.90;;;20.50;100.00;100556.75;4173996;28;20489;-77
2021/09/14 07:54:32;;;;;;;13.65;6.60;;;21.20;99.90;;;20.48;100.00;100553.50;4176968;28;20064;-77
2021/09/14 07:56:33;;;;;;;17.95;5.82;;;21.20;99.90;;;20.51;100.00;100556.53;4168899;28;20029;-77
2021/09/14 07:58:34;;;;;;;12.07;5.65;;;21.30;99.90;;;20.57;100.00;100552.16;4166675;28;20029;-77
2021/09/14 08:00:35;;;;;;;9.40;4.50;;;21.30;99.90;;;20.59;100.00;100550.88;4168630;28;20033;-77
2021/09/14 08:02:37;;;;;;;12.02;5.57;;;21.40;99.90;;;20.66;100.00;100558.81;4159813;28;20096;-76
2021/09/14 08:04:38;;;;;;;14.88;5.20;;;21.40;99.90;;;20.76;100.00;100553.72;4179805;28;20025;-77
2021/09/14 08:06:39;;;;;;;8.00;4.80;;;21.50;99.90;;;20.76;100.00;100545.69;4172644;28;20074;-77
2021/09/14 08:08:40;;;;;;;11.63;5.88;;;21.60;99.90;;;20.84;100.00;100553.44;4196751;28;20373;-77
2021/09/14 08:10:41;;;;;;;11.00;5.88;;;21.60;99.90;;;20.86;100.00;100552.16;4176634;28;20053;-77
2021/09/14 08:12:42;;;;;;;12.13;5.70;;;21.70;99.90;;;20.85;100.00;100553.19;4163186;28;20075;-80
2021/09/14 08:14:43;;;;;;;14.15;5.95;;;21.70;99.90;;;20.91;100.00;100554.97;4171975;28;20041;-81
2021/09/14 08:16:47;;;;;;;13.13;6.85;;;21.80;99.90;;;20.95;100.00;100547.28;4175403;28;20040;-79
2021/09/14 08:18:48;;;;;;;17.73;6.75;;;21.80;99.90;;;20.98;100.00;100561.06;4171119;28;20032;-78
2021/09/14 08:20:49;;;;;;;11.43;6.85;;;21.80;99.90;;;20.96;100.00;100552.44;4175863;28;20028;-78
2021/09/14 08:22:51;;;;;;;14.73;8.70;;;21.80;99.90;;;20.98;100.00;100560.22;4182716;28;20120;-78
2021/09/14 08:24:52;;;;;;;14.45;7.60;;;21.80;99.90;;;20.93;100.00;100558.25;4179377;28;20033;-78
2021/09/14 08:26:53;;;;;;;12.75;7.50;;;21.80;99.90;;;20.97;100.00;100551.38;4184448;28;20392;-78
2021/09/14 08:28:53;;;;;;;17.35;7.07;;;21.70;99.90;;;20.94;100.00;100548.31;4184705;28;20029;-78
2021/09/14 08:30:55;;;;;;;13.43;6.70;;;21.70;99.90;;;20.90;100.00;100558.72;4184094;28;20078;-78
2021/09/14 08:32:56;;;;;;;11.77;5.88;;;21.80;99.90;;;20.93;100.00;100552.88;4183561;28;20033;-78
2021/09/14 08:34:57;;;;;;;12.20;6.45;;;21.70;99.90;;;21.00;100.00;100560.03;4184836;28;20063;-79
2021/09/14 08:36:58;;;;;;;10.32;5.93;;;21.80;99.90;;;21.03;100.00;100559.56;4184256;28;20040;-80
2021/09/14 08:38:59;;;;;;;11.07;6.45;;;21.80;99.90;;;21.10;100.00;100562.97;4183070;28;20033;-77
2021/09/14 08:41:01;;;;;;;13.55;5.35;;;21.90;99.90;;;21.14;100.00;100553.44;4181071;28;20044;-78
2021/09/14 08:43:03;;;;;;;11.77;5.38;;;21.90;99.90;;;21.17;100.00;100558.34;4166690;28;20051;-78
2021/09/14 08:45:07;;;;;;;12.20;5.85;;;22.00;99.90;;;21.41;100.00;100570.78;4177576;28;20029;-78
2021/09/14 08:47:09;;;;;;;15.68;5.88;;;22.20;99.90;;;21.67;100.00;100578.38;4167340;28;20045;-78
2021/09/14 08:49:12;;;;;;;13.68;5.55;;;22.50;99.90;;;21.75;100.00;100572.66;4180838;28;20510;-79
2021/09/14 08:51:14;;;;;;;8.68;4.53;;;22.70;99.90;;;21.91;100.00;100584.59;4176469;28;20107;-79
2021/09/14 08:53:15;;;;;;;10.73;4.65;;;22.90;99.90;;;21.94;100.00;100581.47;4167137;28;20025;-77
2021/09/14 08:55:16;;;;;;;11.52;5.20;;;23.00;99.90;;;22.01;100.00;100577.59;4166797;28;20044;-77
2021/09/14 08:57:17;;;;;;;9.30;3.72;;;23.10;99.90;;;22.04;100.00;100593.22;4166129;28;20029;-77
2021/09/14 08:59:33;;;;;;;8.30;4.68;;;23.10;99.90;;;22.07;100.00;100581.22;4166766;28;20036;-76
2021/09/14 09:01:34;;;;;;;12.10;4.93;;;23.10;99.90;;;22.01;100.00;100582.16;4163946;28;20623;-77
2021/09/14 09:03:37;;;;;;;10.18;4.13;;;23.10;99.90;;;21.98;100.00;100575.38;4180182;28;20025;-78
2021/09/14 09:05:40;;;;;;;9.13;4.45;;;23.00;99.90;;;21.97;100.00;100579.13;4166965;28;20037;-79
2021/09/14 09:07:41;;;;;;;10.52;4.53;;;22.90;99.90;;;21.92;100.00;100578.19;4166064;28;20038;-81
2021/09/14 09:09:42;;;;;;;7.93;4.63;;;22.80;99.90;;;21.91;100.00;100576.56;4164028;28;20125;-78
2021/09/14 09:12:01;;;;;;;8.88;3.53;;;22.80;99.90;;;21.84;100.00;100584.69;4183392;28;20068;-78
2021/09/14 09:14:04;;;;;;;7.53;4.15;;;22.70;99.90;;;21.61;100.00;100584.69;4177911;28;20024;-79